Time;durP1;ratioP1;P1;durP2;ratioP2;P2;SDS_P1;SDS_P2;PMS_P1;PMS_P2;Temp;Humidity;BMP_temperature;BMP_pressure;BME280_temperature;BME280_humidity;BME280_pressure;Samples;Min_cycle;Max_cycle;Signal;HPM_P1;HPM_P2
2020/12/25 00:02:04;;;;;;;6.87;2.77;;;;;;;1.67;85.75;101173.34;5157673;27;20540;-60
2020/12/25 00:04:30;;;;;;;7.10;2.30;;;;;;;1.61;85.83;101176.28;5158293;27;20477;-60
2020/12/25 00:06:57;;;;;;;5.83;3.00;;;;;;;1.61;86.37;101178.81;5161866;27;20819;-61
2020/12/25 00:09:25;;;;;;;6.57;2.50;;;;;;;1.80;86.19;101178.69;5159755;27;20519;-60
2020/12/25 00:11:51;;;;;;;6.93;2.80;;;;;;;1.78;86.01;101181.91;5161749;27;20455;-62
2020/12/25 00:14:18;;;;;;;7.10;2.67;;;;;;;1.63;86.49;101184.06;5158826;27;20574;-59
2020/12/25 00:16:45;;;;;;;7.50;2.87;;;;;;;1.70;86.16;101188.88;5161751;27;20783;-61
2020/12/25 00:19:11;;;;;;;11.63;4.03;;;;;;;1.54;86.12;101181.59;5160199;27;20495;-60
2020/12/25 00:21:38;;;;;;;5.60;2.57;;;;;;;1.64;86.07;101184.16;5161850;27;20497;-59
2020/12/25 00:24:05;;;;;;;6.10;2.57;;;;;;;1.62;86.31;101188.22;5149924;27;20597;-58
2020/12/25 00:26:33;;;;;;;5.83;2.80;;;;;;;1.63;86.57;101184.06;5160867;27;20483;-62
2020/12/25 00:29:01;;;;;;;7.67;2.90;;;;;;;1.34;86.83;101188.44;5159831;27;20525;-58
2020/12/25 00:31:29;;;;;;;9.07;3.93;;;;;;;1.55;86.94;101189.38;5161594;27;20473;-60
2020/12/25 00:33:57;;;;;;;16.07;7.10;;;;;;;1.54;86.85;101189.25;5159808;27;20455;-59
2020/12/25 00:36:25;;;;;;;8.57;4.00;;;;;;;1.43;87.19;101204.47;5160984;27;20963;-61
2020/12/25 00:38:51;;;;;;;7.47;3.03;;;;;;;1.58;86.33;101198.91;5159792;27;20445;-61
2020/12/25 00:41:18;;;;;;;15.63;6.57;;;;;;;1.55;86.96;101204.63;5161411;27;20478;-59
2020/12/25 00:43:46;;;;;;;20.30;9.07;;;;;;;1.65;87.25;101210.50;5161330;27;20467;-61
2020/12/25 00:46:14;;;;;;;15.03;7.23;;;;;;;1.70;87.56;101204.16;5160792;27;20740;-60
2020/12/25 00:48:40;;;;;;;7.93;3.50;;;;;;;1.53;86.67;101215.44;5160949;27;20456;-60
2020/12/25 00:51:12;;;;;;;10.40;3.30;;;;;;;1.40;86.60;101216.94;5159422;27;20449;-61
2020/12/25 00:53:39;;;;;;;6.37;3.13;;;;;;;1.27;87.31;101214.09;5161311;27;20426;-60
2020/12/25 00:56:05;;;;;;;8.20;3.50;;;;;;;1.42;86.80;101217.94;5159591;27;20450;-59
2020/12/25 00:58:32;;;;;;;21.17;4.90;;;;;;;1.54;86.37;101207.91;5161289;27;20475;-61
2020/12/25 01:00:59;;;;;;;6.67;3.50;;;;;;;1.50;86.18;101215.16;5158778;27;20985;-61
2020/12/25 01:03:26;;;;;;;9.13;3.10;;;;;;;1.39;86.41;101221.88;5160798;27;20438;-61
2020/12/25 01:05:53;;;;;;;12.97;3.57;;;;;;;1.46;86.66;101230.19;5159019;27;20551;-60
2020/12/25 01:08:19;;;;;;;7.47;4.03;;;;;;;1.35;85.98;101218.19;5160922;27;20479;-60
2020/12/25 01:10:46;;;;;;;6.82;2.90;;;;;;;1.13;87.11;101221.38;5154176;27;20238;-61
2020/12/25 01:13:12;;;;;;;14.10;5.07;;;;;;;1.07;87.15;101229.38;5160408;27;20296;-59
2020/12/25 01:15:39;;;;;;;5.43;2.83;;;;;;;1.06;87.09;101241.94;5157973;27;20480;-58
2020/12/25 01:18:07;;;;;;;9.48;3.00;;;;;;;1.12;86.65;101244.16;5160882;27;20753;-61
2020/12/25 01:20:34;;;;;;;9.55;3.17;;;;;;;1.15;86.62;101247.84;5159061;27;20317;-58
2020/12/25 01:23:01;;;;;;;7.78;2.67;;;;;;;0.94;87.16;101254.47;5160666;27;20285;-60
2020/12/25 01:25:28;;;;;;;8.30;2.75;;;;;;;0.81;87.16;101260.09;5158232;27;20237;-58
2020/12/25 01:27:54;;;;;;;6.85;3.58;;;;;;;0.88;87.56;101261.56;5160392;27;20217;-60
2020/12/25 01:30:21;;;;;;;5.32;2.38;;;;;;;0.99;87.39;101262.50;5158849;27;20233;-59
2020/12/25 01:32:48;;;;;;;9.87;3.17;;;;;;;0.89;87.08;101259.16;5160607;27;20198;-59
2020/12/25 01:35:15;;;;;;;6.85;3.20;;;;;;;0.90;87.55;101268.56;5157930;27;20442;-61
2020/12/25 01:37:42;;;;;;;9.55;3.30;;;;;;;0.88;87.08;101266.63;5160669;27;20630;-60
2020/12/25 01:40:09;;;;;;;14.32;3.92;;;;;;;0.78;86.93;101272.53;5158490;27;20261;-60
2020/12/25 01:42:36;;;;;;;6.80;3.13;;;;;;;0.74;87.35;101270.47;5160224;27;20202;-58
2020/12/25 01:45:03;;;;;;;8.20;3.10;;;;;;;0.74;86.94;101275.56;5158288;27;20225;-61
2020/12/25 01:47:48;;;;;;;11.25;3.33;;;;;;;0.56;87.27;101280.75;5160068;27;20222;-60
2020/12/25 01:50:16;;;;;;;6.80;3.10;;;;;;;0.63;87.60;101280.59;5157950;27;20711;-61
2020/12/25 01:52:43;;;;;;;5.38;2.55;;;;;;;0.52;87.44;101283.78;5160053;27;20202;-59
2020/12/25 01:55:12;;;;;;;12.35;3.00;;;;;;;0.42;88.10;101278.63;5157788;27;20536;-60
2020/12/25 01:57:39;;;;;;;10.90;3.10;;;;;;;0.37;88.47;101286.69;5160002;27;20565;-57
2020/12/25 02:00:06;;;;;;;7.85;2.63;;;;;;;0.22;87.92;101282.78;5158389;27;20572;-60
2020/12/25 02:02:33;;;;;;;6.45;2.90;;;;;;;0.16;88.03;101289.81;5159735;27;20216;-58
2020/12/25 02:05:00;;;;;;;10.82;3.05;;;;;;;0.16;88.07;101292.38;5146862;27;20269;-61
2020/12/25 02:07:27;;;;;;;12.50;4.28;;;;;;;0.20;88.27;101296.97;5159119;27;20276;-60
2020/12/25 02:09:54;;;;;;;8.88;3.10;;;;;;;0.21;88.11;101294.56;5157871;27;20674;-60
2020/12/25 02:12:21;;;;;;;8.90;2.85;;;;;;;0.14;88.08;101292.22;5159738;27;20284;-60
2020/12/25 02:14:48;;;;;;;12.57;3.75;;;;;;;-0.02;88.30;101298.41;5157548;27;20261;-58
2020/12/25 02:17:14;;;;;;;7.25;3.20;;;;;;;-0.08;89.04;101299.47;5159605;27;20198;-61
2020/12/25 02:19:41;;;;;;;8.00;2.85;;;;;;;0.02;88.79;101299.59;5157741;27;20236;-60
2020/12/25 02:22:09;;;;;;;20.80;3.53;;;;;;;-0.21;89.24;101311.00;5159517;27;20204;-59
2020/12/25 02:24:36;;;;;;;13.18;4.15;;;;;;;-0.16;89.26;101306.34;5157257;27;20237;-60
2020/12/25 02:27:02;;;;;;;7.68;3.45;;;;;;;-0.32;89.12;101319.25;5158542;27;20229;-59
2020/12/25 02:29:29;;;;;;;14.60;4.28;;;;;;;-0.25;89.06;101324.19;5157572;27;20316;-60
2020/12/25 02:31:55;;;;;;;8.30;3.17;;;;;;;-0.18;88.26;101320.56;5159193;27;20200;-59
2020/12/25 02:34:22;;;;;;;10.50;3.50;;;;;;;-0.42;89.13;101331.06;5145704;27;20531;-61
2020/12/25 02:36:49;;;;;;;9.15;3.40;;;;;;;-0.39;88.86;101325.41;5158475;27;20201;-60
2020/12/25 02:39:16;;;;;;;12.65;3.72;;;;;;;-0.48;88.88;101327.03;5157584;27;20233;-59
2020/12/25 02:41:43;;;;;;;7.93;3.85;;;;;;;-0.48;88.86;101327.94;5158963;27;20198;-60
2020/12/25 02:44:09;;;;;;;12.88;3.13;;;;;;;-0.59;89.53;101333.63;5156981;27;20234;-58
2020/12/25 02:46:36;;;;;;;12.50;2.92;;;;;;;-0.60;89.38;101334.38;5092236;28;20267;-59
2020/12/25 02:49:03;;;;;;;8.07;2.90;;;;;;;-0.61;89.41;101335.13;5094008;28;20227;-60
2020/12/25 02:51:29;;;;;;;10.05;2.80;;;;;;;-0.75;89.93;101341.41;5095508;28;20290;-61
2020/12/25 02:53:56;;;;;;;6.97;2.47;;;;;;;-0.55;89.04;101343.31;5093301;28;20204;-60
2020/12/25 02:56:23;;;;;;;5.78;2.97;;;;;;;-0.51;88.79;101342.84;5095190;28;20315;-60
2020/12/25 02:58:50;;;;;;;8.10;2.28;;;;;;;-0.46;88.38;101346.72;5094167;28;20196;-58
2020/12/25 03:01:16;;;;;;;6.80;3.22;;;;;;;-0.73;88.66;101345.88;5094576;28;20568;-61
2020/12/25 03:03:43;;;;;;;7.60;2.45;;;;;;;-0.65;89.14;101338.09;5098963;27;20315;-57
2020/12/25 03:06:10;;;;;;;6.63;2.60;;;;;;;-0.75;89.06;101337.22;5135322;27;20667;-60
2020/12/25 03:08:38;;;;;;;8.07;2.22;;;;;;;-0.74;88.48;101336.47;5137734;27;20219;-60
2020/12/25 03:11:05;;;;;;;8.02;2.70;;;;;;;-0.86;89.47;101338.72;5124915;27;20643;-60
2020/12/25 03:13:36;;;;;;;7.82;2.40;;;;;;;-0.84;89.16;101347.38;5137902;27;20225;-59
2020/12/25 03:16:03;;;;;;;11.38;2.78;;;;;;;-0.91;89.20;101349.16;5134677;27;20253;-59
2020/12/25 03:18:30;;;;;;;10.38;3.13;;;;;;;-0.90;88.85;101345.88;5137772;27;20289;-61
2020/12/25 03:20:56;;;;;;;13.32;3.08;;;;;;;-0.90;88.49;101341.72;5135898;27;20325;-59
2020/12/25 03:23:23;;;;;;;7.57;2.33;;;;;;;-0.79;88.06;101341.84;5139549;27;20222;-57
2020/12/25 03:25:50;;;;;;;6.82;2.90;;;;;;;-1.10;88.86;101342.28;5156180;27;20677;-60
2020/12/25 03:28:16;;;;;;;11.85;3.40;;;;;;;-1.16;89.14;101346.75;5158014;27;20232;-58
2020/12/25 03:30:44;;;;;;;16.13;2.80;;;;;;;-1.06;89.01;101346.91;5152730;27;20230;-58
2020/12/25 03:33:11;;;;;;;7.32;3.25;;;;;;;-1.01;88.76;101357.50;5158416;27;20194;-59
2020/12/25 03:35:49;;;;;;;13.40;2.65;;;;;;;-1.18;88.90;101363.44;5155908;27;20233;-60
2020/12/25 03:38:15;;;;;;;14.35;2.97;;;;;;;-1.38;89.39;101359.84;5157557;27;20190;-59
2020/12/25 03:40:42;;;;;;;12.93;3.00;;;;;;;-1.17;89.33;101361.06;5134303;27;20233;-59
2020/12/25 03:43:09;;;;;;;3.92;2.20;;;;;;;-1.06;88.21;101363.75;5158138;27;20503;-60
2020/12/25 03:45:35;;;;;;;5.10;2.25;;;;;;;-1.32;88.82;101357.00;5144455;27;20267;-60
2020/12/25 03:48:03;;;;;;;8.77;2.63;;;;;;;-1.21;89.25;101358.97;5157865;27;20285;-61
2020/12/25 03:50:29;;;;;;;6.72;2.15;;;;;;;-1.43;88.96;101369.47;5156092;27;20539;-59
2020/12/25 03:52:56;;;;;;;11.85;2.30;;;;;;;-1.48;89.27;101373.22;5157971;27;20212;-58
2020/12/25 03:55:23;;;;;;;9.15;2.03;;;;;;;-1.59;89.68;101369.59;5155814;27;20354;-59
2020/12/25 03:57:50;;;;;;;10.07;2.33;;;;;;;-1.59;90.00;101372.09;5158093;27;20226;-61
2020/12/25 04:00:16;;;;;;;5.10;1.80;;;;;;;-1.71;90.19;101373.41;5140348;27;20736;-60
2020/12/25 04:02:43;;;;;;;9.57;3.30;;;;;;;-1.54;89.94;101368.41;5157709;27;20570;-60
2020/12/25 04:05:12;;;;;;;7.28;1.98;;;;;;;-1.59;89.43;101367.06;5144442;27;20690;-60
2020/12/25 04:07:39;;;;;;;6.80;2.00;;;;;;;-1.47;88.83;101364.88;5157625;27;20204;-58
2020/12/25 04:10:05;;;;;;;7.72;2.05;;;;;;;-1.55;89.54;101369.16;5156145;27;20249;-60
2020/12/25 04:12:32;;;;;;;11.00;2.33;;;;;;;-1.56;89.07;101384.19;5157557;27;20202;-60
2020/12/25 04:14:58;;;;;;;4.60;2.03;;;;;;;-1.68;89.51;101381.31;5155758;27;20324;-60
2020/12/25 04:17:25;;;;;;;6.97;2.40;;;;;;;-1.26;87.96;101370.28;5157536;27;20205;-58
2020/12/25 04:19:52;;;;;;;9.38;2.42;;;;;;;-1.33;88.49;101367.88;5156012;27;20593;-60
2020/12/25 04:22:19;;;;;;;6.50;2.40;;;;;;;-1.48;88.01;101369.78;5157586;27;20193;-60
2020/12/25 04:24:46;;;;;;;4.43;1.65;;;;;;;-1.58;88.83;101371.41;5150599;27;20545;-61
2020/12/25 04:27:12;;;;;;;9.05;2.22;;;;;;;-1.53;88.86;101379.44;5157854;27;20237;-60
2020/12/25 04:29:39;;;;;;;7.97;1.80;;;;;;;-1.34;88.71;101382.16;5155177;27;20244;-60
2020/12/25 04:32:05;;;;;;;7.13;2.10;;;;;;;-1.55;88.25;101389.41;5157767;27;20285;-60
2020/12/25 04:34:32;;;;;;;8.73;2.35;;;;;;;-1.41;88.31;101385.75;5155339;27;20240;-60
2020/12/25 04:36:59;;;;;;;10.10;2.70;;;;;;;-1.30;88.15;101379.22;5157407;27;20210;-58
2020/12/25 04:39:26;;;;;;;15.68;2.72;;;;;;;-1.17;87.72;101381.34;5156123;27;20238;-60
2020/12/25 04:41:55;;;;;;;9.98;2.83;;;;;;;-1.23;86.86;101380.72;5157706;27;20198;-58
2020/12/25 04:44:22;;;;;;;9.35;2.38;;;;;;;-1.15;87.21;101379.84;5155365;27;20237;-59
2020/12/25 04:46:50;;;;;;;9.57;2.65;;;;;;;-1.11;86.39;101386.09;5157208;27;20198;-60
2020/12/25 04:49:17;;;;;;;12.60;2.28;;;;;;;-1.30;86.93;101394.41;5155684;27;20237;-59
2020/12/25 04:51:44;;;;;;;12.55;2.72;;;;;;;-1.15;86.56;101399.19;5160376;27;20194;-59
2020/12/25 04:54:11;;;;;;;9.50;1.80;;;;;;;-1.19;86.35;101402.19;5159529;27;20249;-60
2020/12/25 04:56:38;;;;;;;9.43;2.38;;;;;;;-1.27;86.97;101398.88;5161497;27;20260;-60
2020/12/25 04:59:05;;;;;;;12.07;2.70;;;;;;;-1.13;87.51;101407.84;5152360;27;20603;-60
2020/12/25 05:01:31;;;;;;;12.13;2.20;;;;;;;-1.12;86.64;101404.56;5161203;27;20232;-58
2020/12/25 05:03:58;;;;;;;8.85;2.22;;;;;;;-1.39;87.51;101406.16;5158975;27;20567;-59
2020/12/25 05:06:25;;;;;;;8.10;2.38;;;;;;;-1.54;87.67;101413.09;5160855;27;20630;-60
2020/12/25 05:08:52;;;;;;;5.15;2.30;;;;;;;-1.56;88.18;101409.50;5159722;27;20274;-60
2020/12/25 05:11:21;;;;;;;10.98;2.22;;;;;;;-1.91;88.71;101406.09;5160903;27;20225;-59
2020/12/25 05:13:49;;;;;;;8.65;1.60;;;;;;;-1.87;89.40;101409.81;5159366;27;20190;-60
2020/12/25 05:16:17;;;;;;;7.32;1.90;;;;;;;-1.60;88.66;101407.41;5160629;27;20440;-60
2020/12/25 05:18:45;;;;;;;10.68;2.70;;;;;;;-1.96;88.75;101411.38;5160889;27;20198;-58
2020/12/25 05:21:14;;;;;;;11.15;2.15;;;;;;;-1.91;88.98;101410.22;5159908;27;20234;-60
2020/12/25 05:23:41;;;;;;;6.55;2.53;;;;;;;-1.85;88.86;101408.31;5160949;27;20568;-60
2020/12/25 05:26:10;;;;;;;7.20;2.35;;;;;;;-1.83;89.16;101419.53;5158643;27;20242;-60
2020/12/25 05:28:39;;;;;;;6.57;1.92;;;;;;;-1.91;88.94;101415.28;5160594;27;20708;-58
2020/12/25 05:31:07;;;;;;;8.65;2.20;;;;;;;-1.95;89.22;101405.63;5158628;27;20261;-60
2020/12/25 05:33:34;;;;;;;11.18;3.53;;;;;;;-1.81;88.76;101412.06;5160217;27;20226;-59
2020/12/25 05:36:03;;;;;;;5.55;2.00;;;;;;;-1.95;88.84;101413.22;5147806;27;20240;-59
2020/12/25 05:38:30;;;;;;;10.52;2.25;;;;;;;-2.08;89.19;101416.09;5160594;27;20202;-60
2020/12/25 05:41:00;;;;;;;8.25;2.58;;;;;;;-2.09;89.34;101415.22;5158472;27;20245;-58
2020/12/25 05:43:27;;;;;;;5.65;2.15;;;;;;;-1.98;89.60;101428.06;5160137;27;20206;-60
2020/12/25 05:45:55;;;;;;;15.40;1.92;;;;;;;-2.09;89.42;101430.41;5158098;27;20266;-59
2020/12/25 05:48:22;;;;;;;5.70;2.00;;;;;;;-2.00;89.00;101424.47;5160132;27;20199;-60
2020/12/25 05:50:49;;;;;;;12.15;1.92;;;;;;;-2.07;88.69;101426.38;5159049;27;20508;-60
2020/12/25 05:53:16;;;;;;;7.50;1.63;;;;;;;-2.09;89.08;101427.88;5160194;27;20293;-60
2020/12/25 05:55:44;;;;;;;7.55;2.17;;;;;;;-2.09;89.69;101439.59;5157426;27;20241;-59
2020/12/25 05:58:13;;;;;;;8.07;1.90;;;;;;;-1.86;88.95;101444.50;5160071;27;20201;-60
2020/12/25 06:00:40;;;;;;;5.75;2.05;;;;;;;-2.01;88.69;101448.00;5158333;27;20233;-60
2020/12/25 06:03:11;;;;;;;9.98;1.80;;;;;;;-1.98;88.30;101446.66;5160082;27;20209;-57
2020/12/25 06:05:39;;;;;;;11.85;2.25;;;;;;;-1.77;88.70;101445.47;5157572;27;20678;-57
2020/12/25 06:08:15;;;;;;;5.80;2.00;;;;;;;-1.51;86.64;101452.28;5159892;27;20587;-61
2020/12/25 06:10:45;;;;;;;6.88;1.88;;;;;;;-1.47;86.67;101458.53;5157351;27;20234;-56
2020/12/25 06:13:13;;;;;;;7.20;2.25;;;;;;;-1.31;87.23;101458.44;5159701;27;20223;-60
2020/12/25 06:15:45;;;;;;;11.57;2.97;;;;;;;-1.47;86.53;101460.16;5157473;27;20697;-59
2020/12/25 06:18:23;;;;;;;10.35;2.33;;;;;;;-1.71;87.94;101472.09;5159810;27;20194;-57
2020/12/25 06:20:56;;;;;;;4.43;1.42;;;;;;;-1.49;86.48;101470.13;5157913;27;20265;-60
2020/12/25 06:23:24;;;;;;;5.95;1.67;;;;;;;-1.31;86.13;101475.28;5159437;27;20553;-60
2020/12/25 06:25:52;;;;;;;7.50;2.42;;;;;;;-1.52;85.94;101477.41;5156982;27;20226;-61
2020/12/25 06:28:19;;;;;;;5.88;1.85;;;;;;;-1.58;86.58;101480.25;5159240;27;20297;-59
2020/12/25 06:30:46;;;;;;;7.53;2.10;;;;;;;-1.66;86.38;101486.13;5157802;27;20234;-59
2020/12/25 06:33:13;;;;;;;7.65;2.25;;;;;;;-1.58;85.91;101482.78;5159288;27;20198;-60
2020/12/25 06:35:41;;;;;;;9.20;1.80;;;;;;;-1.68;87.04;101497.75;5156881;27;20316;-60
2020/12/25 06:38:10;;;;;;;5.88;1.90;;;;;;;-1.58;86.79;101497.97;5159143;27;20326;-59
2020/12/25 06:40:37;;;;;;;7.13;2.03;;;;;;;-1.83;86.84;101495.44;5157718;27;20238;-59
2020/12/25 06:43:05;;;;;;;5.75;2.15;;;;;;;-1.73;86.63;101492.22;5158963;27;20205;-58
2020/12/25 06:45:32;;;;;;;10.55;1.88;;;;;;;-1.95;87.38;101500.09;5156163;27;20238;-58
2020/12/25 06:48:16;;;;;;;5.97;2.38;;;;;;;-1.96;87.44;101510.97;5158922;27;20240;-60
2020/12/25 06:50:45;;;;;;;3.65;1.50;;;;;;;-1.97;87.79;101508.25;5157233;27;20317;-59
2020/12/25 06:53:31;;;;;;;6.78;2.30;;;;;;;-1.81;87.05;101500.63;5158945;27;20629;-58
2020/12/25 06:56:07;;;;;;;8.60;1.88;;;;;;;-1.98;87.80;101504.84;5156771;27;20248;-59
2020/12/25 06:58:36;;;;;;;9.70;2.95;;;;;;;-1.97;87.97;101508.25;5158918;27;20202;-60
2020/12/25 07:01:03;;;;;;;7.68;2.05;;;;;;;-2.20;88.74;101501.72;5156921;27;20234;-60
2020/12/25 07:03:34;;;;;;;5.18;1.88;;;;;;;-2.28;88.45;101505.03;5158945;27;20288;-57
2020/12/25 07:06:01;;;;;;;7.68;2.00;;;;;;;-2.36;88.79;101504.25;5156100;27;20530;-59
2020/12/25 07:08:30;;;;;;;9.57;2.00;;;;;;;-2.33;88.81;101515.59;5158727;27;20288;-60
2020/12/25 07:11:04;;;;;;;7.70;2.00;;;;;;;-2.23;88.46;101511.47;5156963;27;20316;-60
2020/12/25 07:13:31;;;;;;;6.28;1.92;;;;;;;-2.19;88.39;101519.53;5158028;27;20194;-60
2020/12/25 07:15:58;;;;;;;10.05;2.60;;;;;;;-2.23;88.81;101521.59;5146717;27;20230;-60
2020/12/25 07:18:26;;;;;;;9.35;2.00;;;;;;;-2.42;88.93;101521.31;5158541;27;20251;-60
2020/12/25 07:20:54;;;;;;;11.82;2.40;;;;;;;-2.31;88.84;101529.28;5156605;27;20662;-59
2020/12/25 07:23:21;;;;;;;10.40;2.30;;;;;;;-2.03;87.98;101531.28;5158538;27;20202;-60
2020/12/25 07:25:48;;;;;;;5.88;2.40;;;;;;;-2.25;87.40;101528.13;5156381;27;20233;-58
2020/12/25 07:28:15;;;;;;;8.32;2.50;;;;;;;-2.37;88.45;101538.75;5158282;27;20244;-60
2020/12/25 07:30:41;;;;;;;10.15;2.10;;;;;;;-2.35;88.31;101547.38;5156520;27;20256;-60
2020/12/25 07:33:08;;;;;;;6.85;3.10;;;;;;;-2.27;88.15;101550.72;5158169;27;20202;-60
2020/12/25 07:35:40;;;;;;;9.15;2.45;;;;;;;-2.19;87.69;101549.00;5155964;27;20702;-56
2020/12/25 07:38:25;;;;;;;8.90;3.10;;;;;;;-2.21;88.14;101553.03;5157453;27;20194;-59
2020/12/25 07:40:53;;;;;;;9.00;3.10;;;;;;;-2.13;88.66;101564.84;5156500;27;20233;-60
2020/12/25 07:43:19;;;;;;;6.00;3.25;;;;;;;-2.26;87.94;101574.38;5158056;27;20209;-57
2020/12/25 07:45:47;;;;;;;9.32;2.40;;;;;;;-2.09;87.63;101576.16;5156011;27;20230;-59
2020/12/25 07:48:14;;;;;;;8.55;2.67;;;;;;;-2.20;87.83;101573.38;5158091;27;20202;-60
2020/12/25 07:50:42;;;;;;;9.73;3.40;;;;;;;-2.25;87.74;101573.66;5155833;27;20316;-60
2020/12/25 07:53:10;;;;;;;8.77;2.25;;;;;;;-1.80;87.05;101566.56;5158210;27;20202;-57
2020/12/25 07:55:38;;;;;;;6.68;2.45;;;;;;;-1.78;86.01;101585.34;5156081;27;20242;-59
2020/12/25 07:58:05;;;;;;;4.65;2.55;;;;;;;-1.63;86.06;101586.03;5158111;27;20229;-59
2020/12/25 08:00:33;;;;;;;12.45;2.58;;;;;;;-1.73;85.59;101588.38;5155750;27;22355;-59
2020/12/25 08:02:59;;;;;;;8.32;2.47;;;;;;;-1.54;85.86;101586.09;5157910;27;20202;-60
2020/12/25 08:05:27;;;;;;;7.60;2.05;;;;;;;-1.84;86.16;101589.75;5155854;27;20258;-60
2020/12/25 08:07:55;;;;;;;10.50;2.83;;;;;;;-2.14;86.78;101597.53;5157825;27;20198;-58
2020/12/25 08:10:22;;;;;;;18.48;2.95;;;;;;;-2.05;86.42;101608.66;5156281;27;20269;-59
2020/12/25 08:12:49;;;;;;;9.50;2.60;;;;;;;-1.96;86.96;101609.63;5157973;27;20208;-59
2020/12/25 08:15:19;;;;;;;8.18;2.58;;;;;;;-2.12;86.97;101614.69;5155978;27;20233;-59
2020/12/25 08:17:49;;;;;;;8.88;2.05;;;;;;;-1.75;85.69;101607.53;5157635;27;20293;-59
2020/12/25 08:20:15;;;;;;;6.72;2.00;;;;;;;-2.12;86.41;101617.22;5155490;27;20536;-58
2020/12/25 08:22:42;;;;;;;4.97;1.95;;;;;;;-2.22;87.31;101606.84;5157763;27;20552;-58
2020/12/25 08:25:09;;;;;;;4.93;2.17;;;;;;;-2.09;86.50;101607.44;5155858;27;20237;-59
2020/12/25 08:27:36;;;;;;;8.68;2.28;;;;;;;-2.01;86.77;101614.94;5161898;27;20513;-60
2020/12/25 08:30:05;;;;;;;9.70;2.85;;;;;;;-2.26;87.34;101615.72;5160135;27;20320;-59
2020/12/25 08:32:33;;;;;;;9.30;2.70;;;;;;;-2.15;86.97;101611.84;5161807;27;20202;-60
2020/12/25 08:35:13;;;;;;;4.25;2.22;;;;;;;-1.67;85.77;101613.41;5159674;27;20244;-59
2020/12/25 08:37:40;;;;;;;9.73;3.65;;;;;;;-1.95;86.13;101620.66;5161715;27;20202;-58
2020/12/25 08:40:14;;;;;;;7.47;2.40;;;;;;;-1.61;86.71;101626.72;5158413;27;20634;-60
2020/12/25 08:42:40;;;;;;;4.13;1.90;;;;;;;-1.35;85.66;101618.41;5161479;27;20202;-58
2020/12/25 08:45:08;;;;;;;3.85;1.95;;;;;;;-1.78;85.29;101630.00;5159314;27;20275;-60
2020/12/25 08:47:35;;;;;;;7.25;2.42;;;;;;;-1.43;84.57;101629.38;5161606;27;20198;-59
2020/12/25 08:50:03;;;;;;;6.78;2.10;;;;;;;-1.44;85.14;101623.41;5159592;27;20245;-60
2020/12/25 08:52:32;;;;;;;4.72;2.30;;;;;;;-1.29;83.89;101631.69;5159330;27;20685;-60
2020/12/25 08:55:00;;;;;;;4.75;2.00;;;;;;;-1.40;84.75;101644.88;5157037;27;20238;-61
2020/12/25 08:57:28;;;;;;;8.10;2.88;;;;;;;-1.13;84.03;101639.25;5160828;27;20384;-60
2020/12/25 09:00:05;;;;;;;7.93;2.55;;;;;;;-1.08;82.85;101644.78;5159143;27;20650;-56
2020/12/25 09:02:32;;;;;;;12.48;3.38;;;;;;;-1.39;84.55;101641.63;5160790;27;20198;-54
2020/12/25 09:05:00;;;;;;;11.07;2.80;;;;;;;-1.24;83.65;101648.28;5156319;27;20598;-59
2020/12/25 09:07:26;;;;;;;13.73;3.67;;;;;;;-1.12;84.20;101642.69;5160874;27;20619;-59
2020/12/25 09:09:53;;;;;;;12.20;3.88;;;;;;;-1.19;83.93;101651.28;5158581;27;20238;-59
2020/12/25 09:12:20;;;;;;;3.78;2.38;;;;;;;-1.31;83.52;101645.84;5140378;27;20293;-54
2020/12/25 09:14:46;;;;;;;11.60;3.17;;;;;;;-1.31;84.12;101639.88;5137900;27;20679;-59
2020/12/25 09:17:13;;;;;;;7.72;2.38;;;;;;;-1.47;84.13;101642.44;5139943;27;20198;-59
2020/12/25 09:19:40;;;;;;;8.60;2.85;;;;;;;-1.50;84.42;101654.06;5138141;27;20654;-59
2020/12/25 09:22:07;;;;;;;7.00;1.90;;;;;;;-1.33;84.47;101661.63;5139968;27;20298;-54
2020/12/25 09:24:35;;;;;;;10.75;4.05;;;;;;;-1.33;84.37;101662.53;5138184;27;20405;-59
2020/12/25 09:27:01;;;;;;;9.40;2.03;;;;;;;-1.38;83.96;101662.03;5140324;27;20289;-60
2020/12/25 09:29:28;;;;;;;5.00;1.85;;;;;;;-1.37;83.40;101660.41;5158375;27;20230;-60
2020/12/25 09:31:55;;;;;;;10.63;2.92;;;;;;;-1.27;83.38;101663.13;5160351;27;20232;-59
2020/12/25 09:34:21;;;;;;;7.45;2.10;;;;;;;-1.25;83.08;101666.75;5158137;27;20238;-60
2020/12/25 09:36:48;;;;;;;7.28;2.15;;;;;;;-1.15;82.51;101657.53;5160067;27;20289;-61
2020/12/25 09:39:16;;;;;;;10.40;2.90;;;;;;;-1.13;82.23;101666.22;5158297;27;20230;-60
2020/12/25 09:41:42;;;;;;;6.50;2.95;;;;;;;-0.87;81.91;101668.88;5160358;27;20198;-60
2020/12/25 09:44:09;;;;;;;6.10;2.63;;;;;;;-0.97;81.61;101669.56;5158085;27;20222;-59
2020/12/25 09:46:36;;;;;;;6.85;1.90;;;;;;;-0.79;81.44;101673.84;5160251;27;20222;-59
2020/12/25 09:49:02;;;;;;;5.43;1.98;;;;;;;-0.78;81.23;101671.47;5151786;27;20289;-60
2020/12/25 09:51:29;;;;;;;8.32;1.90;;;;;;;-0.83;80.77;101675.16;5159844;27;20220;-59
2020/12/25 09:53:55;;;;;;;6.38;1.70;;;;;;;-0.74;81.01;101672.69;5158201;27;20547;-60
2020/12/25 09:56:23;;;;;;;10.02;2.55;;;;;;;-0.73;80.81;101674.47;5159621;27;20225;-59
2020/12/25 09:58:49;;;;;;;5.38;1.92;;;;;;;-0.72;80.65;101676.28;5158280;27;20204;-60
2020/12/25 10:01:16;;;;;;;6.63;2.22;;;;;;;-0.49;80.19;101671.00;5159538;27;20668;-60
2020/12/25 10:03:43;;;;;;;9.10;2.40;;;;;;;-0.34;79.33;101678.34;5159608;27;20618;-60
2020/12/25 10:06:09;;;;;;;7.38;2.45;;;;;;;-0.43;79.44;101681.78;5157290;27;20325;-60
2020/12/25 10:08:36;;;;;;;6.60;2.53;;;;;;;-0.37;78.83;101676.41;5159945;27;20502;-59
2020/12/25 10:11:03;;;;;;;4.40;1.92;;;;;;;-0.24;79.28;101672.56;5157918;27;20226;-59
2020/12/25 10:13:31;;;;;;;10.23;2.50;;;;;;;-0.20;78.83;101683.16;5159656;27;20550;-59
2020/12/25 10:15:57;;;;;;;7.68;2.40;;;;;;;-0.23;78.43;101675.25;5157121;27;20238;-60
2020/12/25 10:18:24;;;;;;;11.05;2.47;;;;;;;-0.16;78.83;101680.19;5159705;27;20202;-60
2020/12/25 10:20:51;;;;;;;12.48;5.15;;;;;;;-0.10;78.75;101684.09;5157786;27;20265;-59
2020/12/25 10:23:17;;;;;;;6.25;2.30;;;;;;;-0.04;78.10;101684.72;5159331;27;20208;-59
2020/12/25 10:25:44;;;;;;;6.35;2.50;;;;;;;-0.18;78.21;101693.47;5157256;27;20964;-58
2020/12/25 10:28:10;;;;;;;5.95;2.30;;;;;;;-0.22;78.61;101692.28;5159429;27;20518;-59
2020/12/25 10:30:38;;;;;;;13.82;3.10;;;;;;;-0.12;78.38;101695.75;5146397;27;20327;-59
2020/12/25 10:33:05;;;;;;;6.43;1.85;;;;;;;-0.02;78.36;101695.91;5159306;27;20199;-60
2020/12/25 10:35:32;;;;;;;10.43;2.60;;;;;;;-0.08;77.81;101695.28;5156835;27;20230;-59
2020/12/25 10:37:58;;;;;;;4.72;1.85;;;;;;;0.19;77.34;101697.13;5159339;27;20216;-60
2020/12/25 10:40:29;;;;;;;10.20;1.90;;;;;;;0.11;77.00;101696.38;5143172;27;20234;-60
2020/12/25 10:42:55;;;;;;;9.13;2.00;;;;;;;0.11;77.26;101692.94;5136513;27;20203;-60
2020/12/25 10:45:22;;;;;;;5.72;1.83;;;;;;;0.18;77.11;101696.97;5135011;27;20326;-60
2020/12/25 10:47:49;;;;;;;7.28;1.70;;;;;;;0.08;77.21;101693.53;5135759;27;20203;-60
2020/12/25 10:50:16;;;;;;;2.70;1.40;;;;;;;0.10;77.00;101689.50;5135403;27;20239;-59
2020/12/25 10:52:43;;;;;;;10.88;2.20;;;;;;;0.32;76.89;101691.63;5137444;27;20222;-59
2020/12/25 10:55:11;;;;;;;11.05;2.50;;;;;;;0.30;76.85;101692.22;5135170;27;20238;-60
2020/12/25 10:57:38;;;;;;;9.30;3.13;;;;;;;0.43;77.20;101689.22;5136821;27;20211;-61
2020/12/25 11:00:05;;;;;;;5.60;1.77;;;;;;;0.46;76.20;101692.09;5130010;27;20700;-60
2020/12/25 11:02:31;;;;;;;5.03;1.70;;;;;;;0.41;75.54;101684.00;5136635;27;20238;-60
2020/12/25 11:04:59;;;;;;;10.25;2.90;;;;;;;0.47;75.80;101678.63;5132073;27;20319;-59
2020/12/25 11:07:26;;;;;;;8.20;1.73;;;;;;;0.56;75.36;101676.97;5136483;27;20301;-60
2020/12/25 11:09:52;;;;;;;9.82;2.10;;;;;;;0.58;75.05;101677.13;5131599;27;20288;-59
2020/12/25 11:12:19;;;;;;;11.05;2.17;;;;;;;0.62;75.30;101675.03;5153342;27;20198;-59
2020/12/25 11:14:45;;;;;;;5.25;1.85;;;;;;;0.66;75.34;101674.59;5155998;27;20543;-60
2020/12/25 11:17:15;;;;;;;4.45;1.75;;;;;;;0.68;75.08;101677.28;5157988;27;20237;-60
2020/12/25 11:19:42;;;;;;;12.82;2.00;;;;;;;0.69;74.27;101670.53;5155439;27;20238;-59
2020/12/25 11:22:13;;;;;;;8.20;1.65;;;;;;;0.74;74.75;101672.78;5158025;27;20198;-61
2020/12/25 11:24:41;;;;;;;4.63;1.80;;;;;;;1.02;74.93;101672.00;5156037;27;20662;-60
2020/12/25 11:27:08;;;;;;;3.95;1.38;;;;;;;1.02;73.29;101666.91;5157533;27;20201;-59